Terminal Aerodrome Forecast
Issued by NWS

Home | Current Version | Previous Version | Text Only | Print | Product List | Glossary On
Versions: 1 2 3 4 5 6 7 8 9 10 11 12 13 14 15 16 17 18 19 20 21 22
161
FTUS43 KGLD 221729
TAFMCK
TAF
KMCK 221729Z 2218/2318 12013G19KT 5SM -SHRA BR OVC007
      TEMPO 2218/2221 2SM RA BR OVC005
     FM222100 11013G20KT P6SM -DZ VCSH OVC008
     FM230200 12013G19KT 6SM -SHRA BR OVC003
     FM230400 12010KT 3SM -SHRA VCTS SCT001 BKN003CB
     FM231000 12010KT 1SM -SHRA BR OVC001
     FM231300 13012G18KT 6SM -DZ BR VCSH OVC003=

USA.gov is the U.S. government's official web portal to all federal, state and local government web resources and services.